Time;durP1;ratioP1;P1;durP2;ratioP2;P2;SDS_P1;SDS_P2;PMS_P1;PMS_P2;Temp;Humidity;BMP_temperature;BMP_pressure;BME280_temperature;BME280_humidity;BME280_pressure;Samples;Min_cycle;Max_cycle;Signal;HPM_P1;HPM_P2
2022/08/15 00:01:54;;;;;;;4.38;1.05;;;15.10;84.70;;;;;;4973658;28;20101;-76
2022/08/15 00:04:23;;;;;;;1.60;0.80;;;15.20;84.60;;;;;;4974841;28;20026;-76
2022/08/15 00:06:50;;;;;;;0.95;0.70;;;15.30;83.50;;;;;;4974842;28;20522;-76
2022/08/15 00:09:22;;;;;;;3.28;0.90;;;15.40;84.50;;;;;;4975207;28;20092;-77
2022/08/15 00:11:56;;;;;;;3.20;0.80;;;15.40;82.90;;;;;;4975496;28;20029;-73
2022/08/15 00:14:33;;;;;;;1.52;0.70;;;15.50;82.40;;;;;;4973664;28;20027;-73
2022/08/15 00:17:09;;;;;;;1.63;0.80;;;15.50;81.90;;;;;;4972447;28;20018;-74
2022/08/15 00:19:39;;;;;;;3.45;1.13;;;15.60;82.00;;;;;;4972389;28;20062;-74
2022/08/15 00:22:09;;;;;;;2.55;0.73;;;15.70;82.60;;;;;;4972942;28;20026;-73
2022/08/15 00:24:38;;;;;;;3.45;1.20;;;15.90;80.40;;;;;;4975581;28;20027;-71
2022/08/15 00:27:08;;;;;;;4.03;1.30;;;15.90;80.00;;;;;;4973865;28;20081;-71
2022/08/15 00:29:36;;;;;;;2.55;0.90;;;15.90;80.20;;;;;;4976930;28;20570;-72
2022/08/15 00:32:06;;;;;;;2.60;0.80;;;16.10;79.80;;;;;;4973941;28;20027;-72
2022/08/15 00:34:34;;;;;;;4.35;1.40;;;16.20;80.20;;;;;;4974628;28;20038;-73
2022/08/15 00:37:02;;;;;;;1.77;1.00;;;16.30;80.50;;;;;;4974735;28;20710;-72
2022/08/15 00:39:29;;;;;;;2.58;0.90;;;16.40;78.90;;;;;;4974729;28;20843;-71
2022/08/15 00:42:00;;;;;;;1.52;0.95;;;16.50;78.00;;;;;;4988549;28;20049;-73
2022/08/15 00:44:33;;;;;;;1.17;0.70;;;16.60;77.70;;;;;;4973970;28;20053;-74
2022/08/15 00:47:05;;;;;;;1.65;0.80;;;16.70;77.20;;;;;;4974921;28;20023;-71
2022/08/15 00:49:34;;;;;;;2.17;0.85;;;16.80;77.40;;;;;;4974373;28;20126;-70
2022/08/15 00:52:12;;;;;;;2.72;1.10;;;16.80;76.20;;;;;;4973589;28;20022;-74
2022/08/15 00:54:48;;;;;;;0.77;0.60;;;16.80;75.70;;;;;;4977852;28;20108;-75
2022/08/15 00:57:19;;;;;;;1.33;0.70;;;16.80;75.30;;;;;;4973837;28;20037;-74
2022/08/15 00:59:51;;;;;;;1.45;0.93;;;16.80;74.70;;;;;;4975501;28;20580;-72
2022/08/15 01:02:21;;;;;;;1.50;0.60;;;16.80;74.50;;;;;;4974641;28;20114;-72
2022/08/15 01:04:50;;;;;;;2.05;0.95;;;16.80;75.10;;;;;;4956488;28;20031;-75
2022/08/15 01:07:19;;;;;;;1.45;0.70;;;16.80;73.50;;;;;;4983249;28;20201;-72
2022/08/15 01:09:47;;;;;;;2.38;0.80;;;16.90;73.80;;;;;;4974715;28;20118;-72
2022/08/15 01:12:20;;;;;;;1.33;0.60;;;16.80;73.50;;;;;;4972901;28;20034;-71
2022/08/15 01:14:51;;;;;;;0.93;0.70;;;16.90;74.50;;;;;;4975177;28;20526;-71
2022/08/15 01:17:19;;;;;;;1.65;0.70;;;17.00;73.50;;;;;;4973829;28;20479;-71
2022/08/15 01:20:21;;;;;;;2.28;1.00;;;17.00;73.20;;;;;;4993444;28;20029;-74
2022/08/15 01:23:11;;;;;;;1.30;0.60;;;17.10;73.80;;;;;;5003768;28;20056;-73
2022/08/15 01:25:58;;;;;;;1.83;0.63;;;17.30;73.80;;;;;;4979061;28;20034;-73
2022/08/15 01:28:38;;;;;;;1.88;1.02;;;17.40;73.00;;;;;;4978769;28;20034;-73
2022/08/15 01:31:18;;;;;;;2.25;0.77;;;17.50;72.30;;;;;;4989525;28;20045;-72
2022/08/15 01:33:56;;;;;;;1.95;0.80;;;17.50;72.20;;;;;;4978373;28;20061;-71
2022/08/15 01:36:26;;;;;;;2.72;0.70;;;17.40;72.50;;;;;;4979430;28;20139;-70
2022/08/15 01:39:13;;;;;;;2.75;0.80;;;17.40;73.30;;;;;;4993266;28;20034;-71
2022/08/15 01:41:53;;;;;;;0.77;0.75;;;17.40;72.80;;;;;;4979248;28;20050;-73
2022/08/15 01:44:40;;;;;;;2.08;0.75;;;17.50;72.60;;;;;;4977696;28;20444;-73
2022/08/15 01:47:21;;;;;;;1.48;0.70;;;17.50;73.60;;;;;;4975453;28;20027;-72
2022/08/15 01:49:57;;;;;;;1.42;0.70;;;17.60;72.90;;;;;;4977836;28;20146;-73
2022/08/15 01:52:32;;;;;;;2.95;0.65;;;17.50;72.80;;;;;;4978239;28;20444;-71
2022/08/15 01:55:05;;;;;;;3.65;0.60;;;17.50;72.80;;;;;;4985413;28;20604;-71
2022/08/15 01:57:33;;;;;;;1.73;0.60;;;17.40;72.40;;;;;;4972944;28;20043;-74
2022/08/15 02:00:01;;;;;;;1.27;0.60;;;17.50;73.00;;;;;;4975883;28;20037;-73
2022/08/15 02:02:29;;;;;;;1.50;0.55;;;17.40;72.30;;;;;;4978154;28;20473;-70
2022/08/15 02:04:56;;;;;;;1.42;0.60;;;17.50;73.30;;;;;;4976645;28;20022;-71
2022/08/15 02:07:28;;;;;;;2.45;0.50;;;17.60;73.00;;;;;;4988411;28;20772;-71
2022/08/15 02:09:56;;;;;;;0.90;0.60;;;17.80;72.90;;;;;;4976388;28;20030;-71
2022/08/15 02:12:30;;;;;;;0.80;0.60;;;18.00;72.30;;;;;;4977318;28;20046;-71
2022/08/15 02:14:59;;;;;;;1.35;0.60;;;18.20;71.90;;;;;;4976398;28;20080;-72
2022/08/15 02:17:27;;;;;;;1.05;0.40;;;18.20;71.10;;;;;;4974924;28;20967;-70
2022/08/15 02:19:54;;;;;;;3.60;1.15;;;18.40;71.00;;;;;;4982648;28;20462;-71
2022/08/15 02:22:25;;;;;;;2.60;0.85;;;18.60;71.90;;;;;;4977301;28;20019;-71
2022/08/15 02:24:52;;;;;;;2.78;0.82;;;18.80;70.20;;;;;;4977950;28;20019;-71
2022/08/15 02:27:19;;;;;;;1.70;0.60;;;18.90;69.40;;;;;;4975957;28;20050;-73
2022/08/15 02:29:47;;;;;;;1.55;0.65;;;18.90;69.30;;;;;;4977562;28;20125;-71
2022/08/15 02:32:16;;;;;;;1.25;0.60;;;19.00;70.70;;;;;;4993067;28;20022;-71
2022/08/15 02:34:47;;;;;;;1.45;0.52;;;19.10;70.30;;;;;;4992684;28;20030;-72
2022/08/15 02:37:18;;;;;;;0.63;0.47;;;19.30;66.10;;;;;;4975132;28;20139;-72
2022/08/15 02:39:48;;;;;;;1.87;0.93;;;19.40;66.30;;;;;;4976428;28;20046;-72
2022/08/15 02:42:17;;;;;;;1.45;0.55;;;19.70;66.30;;;;;;4974440;28;20376;-71
2022/08/15 02:44:50;;;;;;;2.97;0.60;;;20.10;66.20;;;;;;4964615;28;20271;-72
2022/08/15 02:47:18;;;;;;;1.42;0.50;;;19.90;64.60;;;;;;4976440;28;20022;-72
2022/08/15 02:49:47;;;;;;;3.50;0.90;;;19.50;65.40;;;;;;4976483;28;20400;-71
2022/08/15 02:52:14;;;;;;;0.75;0.40;;;19.40;65.80;;;;;;4977202;28;20018;-71
2022/08/15 02:54:42;;;;;;;3.22;0.40;;;19.30;65.10;;;;;;4979135;28;20023;-72
2022/08/15 02:57:10;;;;;;;1.40;0.40;;;19.30;65.70;;;;;;4988310;28;20506;-71
2022/08/15 02:59:38;;;;;;;2.55;0.93;;;19.00;66.10;;;;;;4975595;28;20088;-72
2022/08/15 03:02:05;;;;;;;0.88;0.50;;;18.90;67.40;;;;;;4975843;28;20034;-73
2022/08/15 03:04:34;;;;;;;2.90;0.52;;;19.40;66.80;;;;;;4974741;28;20023;-71
2022/08/15 03:07:01;;;;;;;2.17;0.60;;;19.70;66.40;;;;;;4977249;28;20490;-74
2022/08/15 03:09:29;;;;;;;3.00;0.50;;;19.90;65.70;;;;;;4975407;28;20045;-72
2022/08/15 03:11:57;;;;;;;2.63;0.43;;;19.80;66.50;;;;;;4977691;28;20501;-77
2022/08/15 03:14:37;;;;;;;2.60;0.60;;;19.90;65.70;;;;;;4975416;28;20038;-74
2022/08/15 03:17:08;;;;;;;1.15;0.50;;;19.90;65.50;;;;;;4975006;28;20029;-74
2022/08/15 03:19:37;;;;;;;1.65;0.57;;;19.80;65.80;;;;;;4974763;28;20038;-77
2022/08/15 03:22:06;;;;;;;2.10;0.60;;;19.70;66.20;;;;;;4977606;28;20509;-75
2022/08/15 03:24:33;;;;;;;1.95;0.40;;;19.60;66.10;;;;;;4976227;28;20026;-73
2022/08/15 03:27:02;;;;;;;2.63;0.60;;;19.40;67.40;;;;;;4977737;28;20049;-71
2022/08/15 03:29:30;;;;;;;4.95;1.63;;;19.10;67.50;;;;;;4975985;28;20033;-72
2022/08/15 03:31:57;;;;;;;2.30;0.57;;;19.10;67.00;;;;;;4992522;28;20027;-77
2022/08/15 03:34:26;;;;;;;1.33;0.60;;;19.10;67.30;;;;;;4974944;28;20403;-74
2022/08/15 03:36:53;;;;;;;0.68;0.40;;;19.00;67.20;;;;;;4977476;28;20376;-75
2022/08/15 03:39:21;;;;;;;1.90;0.40;;;19.10;67.80;;;;;;4976160;28;20025;-75
2022/08/15 03:41:49;;;;;;;2.03;0.50;;;19.10;66.90;;;;;;4976317;28;20019;-73
2022/08/15 03:44:16;;;;;;;1.85;0.50;;;19.10;67.40;;;;;;4976128;28;20486;-77
2022/08/15 03:46:44;;;;;;;1.85;0.60;;;19.00;67.60;;;;;;4975258;28;20109;-74
2022/08/15 03:49:13;;;;;;;1.85;0.55;;;19.10;66.70;;;;;;4976162;28;20394;-75
2022/08/15 03:51:46;;;;;;;2.97;0.82;;;19.00;66.50;;;;;;4974477;28;20031;-75
2022/08/15 03:54:14;;;;;;;3.30;0.77;;;18.80;67.80;;;;;;4976971;28;20097;-76
2022/08/15 03:56:43;;;;;;;2.25;0.70;;;18.70;68.00;;;;;;4974205;28;20018;-75
2022/08/15 03:59:10;;;;;;;1.42;0.65;;;18.80;68.80;;;;;;4991617;28;20030;-76
2022/08/15 04:01:38;;;;;;;4.60;0.77;;;19.00;67.60;;;;;;4976231;28;20040;-76
2022/08/15 04:04:06;;;;;;;3.88;0.88;;;19.60;66.90;;;;;;4965809;28;20022;-70
2022/08/15 04:06:33;;;;;;;1.75;0.70;;;19.90;66.90;;;;;;4965633;28;20033;-70
2022/08/15 04:09:00;;;;;;;1.52;0.60;;;20.00;66.20;;;;;;4975682;28;20483;-71
2022/08/15 04:11:30;;;;;;;1.65;0.50;;;19.90;66.20;;;;;;4973558;28;20034;-70
2022/08/15 04:13:58;;;;;;;2.00;0.55;;;19.60;66.80;;;;;;4974249;28;20077;-71
2022/08/15 04:16:25;;;;;;;2.60;0.50;;;19.30;67.70;;;;;;4981538;28;20029;-71
2022/08/15 04:18:53;;;;;;;1.10;0.50;;;19.00;68.30;;;;;;4981489;28;20085;-71
2022/08/15 04:21:21;;;;;;;2.97;0.50;;;18.80;69.00;;;;;;4975800;28;20491;-71
2022/08/15 04:23:48;;;;;;;3.00;0.50;;;18.70;69.10;;;;;;4974064;28;20076;-73
2022/08/15 04:26:17;;;;;;;1.20;0.50;;;18.60;69.70;;;;;;4975667;28;20725;-71
2022/08/15 04:28:45;;;;;;;1.42;0.68;;;18.90;69.20;;;;;;4974020;28;20427;-70
2022/08/15 04:31:19;;;;;;;1.05;0.50;;;19.40;68.80;;;;;;4976298;28;20449;-72
2022/08/15 04:33:47;;;;;;;1.90;0.50;;;19.80;67.40;;;;;;4973766;28;20142;-69
2022/08/15 04:36:18;;;;;;;0.88;0.40;;;19.90;67.40;;;;;;4979470;28;20026;-72
2022/08/15 04:38:49;;;;;;;0.75;0.63;;;19.60;67.80;;;;;;4981658;28;20034;-72
2022/08/15 04:41:18;;;;;;;0.80;0.77;;;19.20;68.50;;;;;;4990288;28;20111;-72
2022/08/15 04:43:45;;;;;;;0.60;0.50;;;18.90;69.40;;;;;;4973733;28;20015;-73
2022/08/15 04:46:13;;;;;;;2.80;0.50;;;18.90;69.90;;;;;;4975923;28;20027;-72
2022/08/15 04:48:41;;;;;;;1.23;0.50;;;18.60;70.10;;;;;;4984268;28;20068;-69
2022/08/15 04:51:08;;;;;;;1.88;0.40;;;18.50;70.80;;;;;;4995098;28;20479;-73
2022/08/15 04:53:39;;;;;;;2.90;1.35;;;18.30;70.70;;;;;;4990768;28;20039;-69
2022/08/15 04:56:08;;;;;;;2.63;0.70;;;18.40;71.90;;;;;;4977462;28;20106;-69
2022/08/15 04:58:36;;;;;;;1.20;0.45;;;18.80;71.20;;;;;;4977873;28;20133;-71
2022/08/15 05:01:07;;;;;;;1.17;0.55;;;19.00;70.40;;;;;;4991478;28;20089;-71
2022/08/15 05:03:35;;;;;;;3.15;0.43;;;19.10;70.30;;;;;;4997896;28;20041;-72
2022/08/15 05:06:05;;;;;;;1.50;0.60;;;19.10;70.80;;;;;;4998699;28;20432;-72
2022/08/15 05:08:34;;;;;;;2.50;0.52;;;19.20;70.50;;;;;;4988770;28;20034;-71
2022/08/15 05:11:07;;;;;;;1.48;0.40;;;19.10;70.60;;;;;;4978399;28;20104;-72
2022/08/15 05:13:36;;;;;;;1.88;0.60;;;19.10;70.80;;;;;;4987859;28;20027;-74
2022/08/15 05:16:07;;;;;;;1.08;0.45;;;19.00;71.00;;;;;;4977816;28;20033;-71
2022/08/15 05:18:37;;;;;;;1.42;0.88;;;19.00;71.20;;;;;;4977562;28;20019;-71
2022/08/15 05:21:05;;;;;;;0.80;0.50;;;19.20;70.90;;;;;;4977420;28;20102;-72
2022/08/15 05:23:35;;;;;;;1.77;0.50;;;19.40;71.00;;;;;;4976530;28;20088;-72
2022/08/15 05:26:05;;;;;;;0.55;0.30;;;19.40;70.40;;;;;;4996199;28;20025;-73
2022/08/15 05:28:33;;;;;;;1.52;0.47;;;19.20;70.50;;;;;;4988865;28;20453;-75
2022/08/15 05:31:02;;;;;;;0.75;0.50;;;18.90;71.50;;;;;;4974940;28;20045;-72
2022/08/15 05:33:30;;;;;;;0.85;0.50;;;18.70;71.70;;;;;;4977464;28;20431;-74
2022/08/15 05:36:02;;;;;;;1.27;0.55;;;18.50;72.50;;;;;;4970995;28;20045;-72
2022/08/15 05:38:55;;;;;;;1.35;0.60;;;18.20;73.40;;;;;;4976295;28;20088;-73
2022/08/15 05:41:40;;;;;;;2.75;0.68;;;18.10;74.00;;;;;;4976381;28;20026;-73
2022/08/15 05:44:28;;;;;;;0.80;0.47;;;18.00;73.70;;;;;;4977860;28;20026;-73
2022/08/15 05:47:31;;;;;;;0.77;0.40;;;17.80;73.70;;;;;;4975587;28;20727;-73
2022/08/15 05:50:09;;;;;;;0.50;0.40;;;17.60;74.30;;;;;;4989562;28;20124;-73
2022/08/15 05:52:57;;;;;;;0.90;0.50;;;17.50;74.40;;;;;;4978125;28;20024;-73
2022/08/15 05:55:27;;;;;;;0.40;0.40;;;17.40;74.70;;;;;;4977458;28;20036;-73
2022/08/15 05:58:10;;;;;;;2.28;0.65;;;17.30;75.70;;;;;;4977104;28;20046;-75
2022/08/15 06:00:38;;;;;;;0.43;0.43;;;17.20;75.80;;;;;;4978235;28;20109;-77
2022/08/15 06:03:18;;;;;;;1.83;0.57;;;17.00;75.70;;;;;;4977160;28;20041;-76
2022/08/15 06:05:51;;;;;;;0.50;0.50;;;16.90;76.00;;;;;;4977070;28;20019;-72
2022/08/15 06:08:25;;;;;;;0.88;0.60;;;16.90;76.50;;;;;;4976898;28;20050;-74
2022/08/15 06:11:01;;;;;;;1.27;0.60;;;16.80;76.70;;;;;;4976809;28;20035;-73
2022/08/15 06:13:33;;;;;;;0.60;0.50;;;16.70;77.30;;;;;;4985917;28;20026;-71
2022/08/15 06:16:26;;;;;;;0.50;0.40;;;16.60;77.00;;;;;;4995857;28;20034;-72
2022/08/15 06:18:56;;;;;;;0.75;0.45;;;16.50;77.30;;;;;;4985391;28;20527;-73
2022/08/15 06:21:37;;;;;;;2.95;0.43;;;16.50;77.40;;;;;;4976586;28;20046;-71
2022/08/15 06:24:39;;;;;;;0.95;0.40;;;16.40;77.80;;;;;;4973212;28;20501;-72
2022/08/15 06:27:20;;;;;;;1.17;0.57;;;16.40;77.70;;;;;;4966378;28;20029;-73
2022/08/15 06:30:06;;;;;;;0.65;0.40;;;16.20;78.00;;;;;;4975441;28;20049;-72
2022/08/15 06:33:02;;;;;;;0.75;0.60;;;16.30;78.40;;;;;;4973928;28;20722;-73
2022/08/15 06:35:42;;;;;;;1.42;0.55;;;16.20;78.40;;;;;;4956474;28;20038;-74
2022/08/15 06:38:19;;;;;;;0.60;0.55;;;16.10;78.40;;;;;;4980382;28;20038;-71
2022/08/15 06:40:51;;;;;;;0.70;0.45;;;16.10;78.90;;;;;;4977624;28;20032;-73
2022/08/15 06:43:19;;;;;;;1.42;0.60;;;16.00;79.20;;;;;;4976840;28;20033;-74
2022/08/15 06:45:50;;;;;;;1.05;0.50;;;15.90;79.10;;;;;;4977542;28;20390;-74
2022/08/15 06:48:22;;;;;;;0.65;0.50;;;15.80;79.10;;;;;;4976578;28;20035;-75
2022/08/15 06:50:53;;;;;;;1.55;0.50;;;15.80;79.10;;;;;;4984823;28;20034;-74
2022/08/15 06:53:58;;;;;;;0.82;0.50;;;15.80;78.60;;;;;;4976564;28;20037;-73
2022/08/15 06:56:34;;;;;;;0.57;0.55;;;15.70;78.90;;;;;;4975302;28;20042;-74
2022/08/15 06:59:05;;;;;;;1.40;0.50;;;15.70;79.20;;;;;;4976740;28;20169;-75
2022/08/15 07:01:47;;;;;;;2.28;0.63;;;15.60;79.10;;;;;;4981612;28;20022;-71
2022/08/15 07:04:37;;;;;;;0.85;0.60;;;15.60;79.50;;;;;;4980182;28;20060;-77
2022/08/15 07:07:54;;;;;;;0.55;0.40;;;15.50;79.60;;;;;;4976724;28;20029;-74
2022/08/15 07:10:24;;;;;;;0.55;0.50;;;15.40;79.30;;;;;;4991261;28;20089;-70
2022/08/15 07:12:57;;;;;;;1.45;0.68;;;15.40;79.50;;;;;;4976343;28;20026;-73
2022/08/15 07:15:53;;;;;;;1.08;0.60;;;15.40;79.90;;;;;;4956713;28;20062;-73
2022/08/15 07:18:25;;;;;;;0.40;0.40;;;15.30;80.30;;;;;;4955624;28;20049;-72
2022/08/15 07:21:00;;;;;;;4.90;2.70;;;15.20;80.60;;;;;;4966882;28;20022;-72
2022/08/15 07:23:30;;;;;;;0.90;0.70;;;15.20;81.00;;;;;;4975452;28;20034;-71
2022/08/15 07:26:10;;;;;;;0.70;0.60;;;15.10;81.30;;;;;;4982577;28;20054;-73
2022/08/15 07:28:42;;;;;;;1.25;0.70;;;15.00;81.80;;;;;;4990401;28;20099;-68
2022/08/15 07:31:26;;;;;;;0.98;0.65;;;15.00;81.90;;;;;;4976603;28;20046;-72
2022/08/15 07:33:56;;;;;;;2.92;0.60;;;14.90;82.60;;;;;;4975975;28;20062;-72
2022/08/15 07:36:26;;;;;;;1.20;0.60;;;14.90;82.40;;;;;;4975965;28;20113;-72
2022/08/15 07:38:56;;;;;;;1.33;0.57;;;14.80;82.80;;;;;;4986070;28;20165;-71
2022/08/15 07:41:32;;;;;;;2.42;1.15;;;14.80;83.00;;;;;;4971458;28;20027;-72
2022/08/15 07:44:20;;;;;;;1.17;0.73;;;14.70;83.00;;;;;;4970408;28;20038;-72
2022/08/15 07:47:10;;;;;;;2.20;0.60;;;14.70;83.30;;;;;;4974361;28;20102;-72
2022/08/15 07:49:40;;;;;;;1.00;0.80;;;14.70;83.30;;;;;;4977188;28;20057;-69
2022/08/15 07:52:16;;;;;;;0.50;0.50;;;14.70;83.40;;;;;;4976757;28;20543;-71
2022/08/15 07:54:51;;;;;;;2.15;0.52;;;14.70;83.60;;;;;;4974808;28;20414;-71
2022/08/15 07:57:26;;;;;;;0.47;0.47;;;14.70;84.20;;;;;;4975560;28;20101;-72
2022/08/15 08:00:18;;;;;;;1.90;0.60;;;14.60;84.20;;;;;;4974798;28;20022;-74
2022/08/15 08:03:03;;;;;;;0.80;0.60;;;14.50;84.20;;;;;;4981411;28;20089;-72
2022/08/15 08:05:36;;;;;;;1.75;0.50;;;14.50;84.60;;;;;;4976073;28;20027;-73
2022/08/15 08:08:07;;;;;;;1.35;0.70;;;14.50;84.70;;;;;;4974083;28;20479;-72
2022/08/15 08:11:12;;;;;;;1.95;1.23;;;14.50;85.20;;;;;;4975590;28;20046;-73
2022/08/15 08:13:48;;;;;;;2.20;0.55;;;14.40;85.20;;;;;;4976139;28;20506;-71
2022/08/15 08:16:35;;;;;;;1.85;1.02;;;14.40;85.30;;;;;;4994373;28;20549;-74
2022/08/15 08:19:34;;;;;;;1.20;0.90;;;14.40;85.30;;;;;;4994147;28;20022;-70
2022/08/15 08:22:28;;;;;;;1.50;0.73;;;14.40;85.80;;;;;;4976170;28;20510;-73
2022/08/15 08:25:15;;;;;;;1.08;0.60;;;14.40;85.80;;;;;;4954983;28;20480;-73
2022/08/15 08:28:06;;;;;;;1.65;0.60;;;14.40;85.90;;;;;;4968888;28;20057;-71
2022/08/15 08:30:55;;;;;;;1.10;0.68;;;14.30;86.10;;;;;;4978763;28;20125;-71
2022/08/15 08:33:39;;;;;;;2.33;1.02;;;14.30;86.30;;;;;;4979913;28;20018;-73
2022/08/15 08:36:36;;;;;;;2.88;1.10;;;14.20;86.50;;;;;;4959078;28;20028;-75
2022/08/15 08:39:35;;;;;;;2.72;1.02;;;14.20;86.80;;;;;;4964030;28;20142;-75
2022/08/15 08:42:26;;;;;;;1.38;0.60;;;14.20;87.20;;;;;;4978545;28;20036;-75
2022/08/15 08:45:25;;;;;;;2.00;0.80;;;14.20;87.00;;;;;;4991867;28;20652;-74
2022/08/15 08:48:19;;;;;;;2.17;0.70;;;14.20;87.30;;;;;;4959171;28;20038;-72
2022/08/15 08:51:24;;;;;;;1.13;0.68;;;14.20;87.20;;;;;;4967514;28;20030;-76
2022/08/15 08:54:01;;;;;;;1.00;0.70;;;14.20;87.50;;;;;;4979122;28;20050;-74
2022/08/15 08:56:50;;;;;;;1.80;0.93;;;14.10;87.40;;;;;;4975861;28;20142;-76
2022/08/15 08:59:20;;;;;;;3.05;0.80;;;14.00;87.70;;;;;;4976141;28;20038;-73
2022/08/15 09:02:12;;;;;;;1.55;0.90;;;14.00;87.80;;;;;;4978536;28;20476;-73
2022/08/15 09:04:53;;;;;;;1.83;0.90;;;14.00;87.70;;;;;;4978642;28;20026;-74
2022/08/15 09:07:28;;;;;;;2.30;0.70;;;14.00;88.10;;;;;;4976106;28;20023;-73
2022/08/15 09:10:00;;;;;;;1.17;0.90;;;14.00;88.00;;;;;;4977164;28;20049;-72
2022/08/15 09:15:28;;;;;;;1.23;0.70;;;14.00;87.80;;;;;;4976352;28;20100;-72
2022/08/15 09:18:06;;;;;;;2.83;0.80;;;14.00;88.10;;;;;;4993703;28;20037;-73
2022/08/15 09:20:37;;;;;;;0.80;0.80;;;14.00;88.10;;;;;;4972918;28;20033;-77
2022/08/15 09:23:09;;;;;;;2.00;1.25;;;14.00;88.00;;;;;;4993635;28;20483;-76
2022/08/15 09:26:11;;;;;;;1.83;0.80;;;14.00;88.20;;;;;;4977837;28;20034;-75
2022/08/15 09:28:42;;;;;;;3.00;0.70;;;13.90;88.00;;;;;;4988688;28;20044;-74
2022/08/15 09:31:12;;;;;;;1.58;0.93;;;13.90;88.30;;;;;;4978589;28;20088;-73
2022/08/15 09:34:00;;;;;;;5.22;0.90;;;13.90;88.00;;;;;;4978443;28;20789;-74
2022/08/15 09:36:54;;;;;;;1.10;0.85;;;13.90;88.00;;;;;;4975865;28;20026;-74
2022/08/15 09:39:59;;;;;;;2.10;1.08;;;13.90;88.40;;;;;;4957446;28;20480;-74
2022/08/15 09:42:29;;;;;;;1.80;1.30;;;13.80;88.80;;;;;;4976568;28;20026;-75
2022/08/15 09:45:15;;;;;;;2.05;1.30;;;13.80;89.00;;;;;;4977896;28;20026;-75
2022/08/15 09:48:30;;;;;;;2.22;0.90;;;13.80;89.00;;;;;;4976890;28;20030;-74
2022/08/15 09:51:12;;;;;;;2.03;1.33;;;13.80;89.30;;;;;;5016956;28;20128;-74
2022/08/15 09:53:57;;;;;;;6.13;4.85;;;13.70;89.40;;;;;;5014032;28;20071;-73
2022/08/15 09:56:26;;;;;;;2.60;1.67;;;13.70;89.20;;;;;;4986652;28;20058;-74
2022/08/15 09:59:09;;;;;;;1.73;1.00;;;13.70;89.80;;;;;;4978295;28;20061;-73
2022/08/15 10:01:58;;;;;;;2.72;1.85;;;13.70;89.70;;;;;;4976473;28;20022;-74
2022/08/15 10:04:48;;;;;;;2.80;1.98;;;13.70;90.10;;;;;;4977359;28;20390;-74
2022/08/15 10:07:15;;;;;;;1.80;1.17;;;13.70;90.00;;;;;;4980695;28;20038;-76
2022/08/15 10:09:59;;;;;;;2.55;1.25;;;13.60;90.00;;;;;;4977363;28;20030;-73
2022/08/15 10:12:27;;;;;;;1.08;0.90;;;13.50;90.10;;;;;;4958114;28;20019;-74
2022/08/15 10:14:54;;;;;;;2.38;1.20;;;13.50;90.30;;;;;;4958293;28;20027;-75
2022/08/15 10:17:42;;;;;;;1.70;0.90;;;13.50;90.30;;;;;;4971712;28;20558;-73
2022/08/15 10:20:16;;;;;;;2.45;1.75;;;13.40;90.40;;;;;;4961287;28;20055;-75
2022/08/15 10:23:03;;;;;;;1.75;1.33;;;13.40;90.60;;;;;;4976627;28;20037;-75
2022/08/15 10:26:08;;;;;;;2.17;1.40;;;13.40;90.70;;;;;;4976134;28;20118;-73
2022/08/15 10:28:40;;;;;;;2.13;1.30;;;13.30;90.90;;;;;;4976667;28;20025;-75
2022/08/15 10:31:07;;;;;;;2.00;1.50;;;13.20;90.90;;;;;;4977810;28;20125;-76
2022/08/15 10:33:34;;;;;;;1.95;1.17;;;13.30;91.10;;;;;;4971764;28;20097;-75
2022/08/15 10:36:16;;;;;;;1.65;1.02;;;13.10;91.20;;;;;;4977224;28;20460;-76
2022/08/15 10:38:45;;;;;;;4.25;2.15;;;13.10;91.20;;;;;;4976558;28;20026;-76
2022/08/15 10:41:27;;;;;;;2.88;1.10;;;13.10;91.20;;;;;;4976356;28;20049;-74
2022/08/15 10:44:32;;;;;;;3.35;1.73;;;13.00;91.40;;;;;;4977187;28;20060;-74
2022/08/15 10:47:13;;;;;;;1.65;1.17;;;12.90;91.20;;;;;;4975428;28;20028;-73
2022/08/15 10:49:48;;;;;;;2.33;1.23;;;12.90;91.40;;;;;;4973619;28;20117;-73
2022/08/15 10:52:28;;;;;;;4.22;1.40;;;12.90;91.60;;;;;;4976197;28;20028;-74
2022/08/15 10:55:28;;;;;;;1.50;1.10;;;12.90;91.60;;;;;;4975799;28;20030;-73
2022/08/15 10:58:32;;;;;;;2.30;1.45;;;12.80;91.70;;;;;;4975423;28;20084;-73
2022/08/15 11:01:12;;;;;;;2.28;1.33;;;12.80;91.90;;;;;;4975505;28;20598;-74
2022/08/15 11:03:50;;;;;;;2.38;1.60;;;12.90;92.00;;;;;;4976104;28;20030;-74
2022/08/15 11:06:21;;;;;;;2.70;2.00;;;12.70;92.00;;;;;;4974786;28;20037;-74
2022/08/15 11:09:05;;;;;;;3.25;2.15;;;12.60;92.00;;;;;;4975039;28;20030;-76
2022/08/15 11:11:38;;;;;;;3.28;1.67;;;12.60;92.20;;;;;;4975211;28;20067;-75
2022/08/15 11:14:09;;;;;;;4.15;1.63;;;12.60;92.30;;;;;;4974645;28;20037;-75
2022/08/15 11:16:46;;;;;;;3.53;2.08;;;12.60;92.30;;;;;;4976224;28;20060;-75
2022/08/15 11:19:20;;;;;;;3.28;2.10;;;12.50;92.50;;;;;;4977798;28;20030;-75
2022/08/15 11:21:55;;;;;;;3.45;2.05;;;12.40;92.50;;;;;;4972850;28;20030;-73
2022/08/15 11:24:35;;;;;;;2.80;1.95;;;12.50;92.60;;;;;;4976931;28;20060;-76
2022/08/15 11:27:22;;;;;;;3.30;2.03;;;12.40;92.70;;;;;;4974611;28;20034;-75
2022/08/15 11:29:55;;;;;;;3.95;1.88;;;12.40;93.10;;;;;;4973931;28;20041;-75
2022/08/15 11:32:37;;;;;;;;;;;12.40;93.00;;;;;;4974024;28;20022;-75
2022/08/15 11:35:28;;;;;;;4.78;2.40;;;12.40;93.30;;;;;;4973057;28;19910;-75
2022/08/15 11:38:01;;;;;;;3.55;1.95;;;12.40;93.50;;;;;;4972930;28;20035;-74
2022/08/15 11:40:37;;;;;;;2.90;2.22;;;12.30;93.80;;;;;;4975430;28;20057;-74
2022/08/15 11:43:06;;;;;;;5.15;2.20;;;12.30;94.20;;;;;;4974072;28;20018;-75
2022/08/15 11:45:38;;;;;;;4.68;2.80;;;12.20;94.00;;;;;;4974322;28;20030;-75
2022/08/15 11:48:13;;;;;;;4.15;2.17;;;12.20;94.30;;;;;;4975475;28;20022;-73
2022/08/15 11:50:54;;;;;;;3.05;1.98;;;12.10;94.30;;;;;;4973251;28;20030;-73
2022/08/15 11:53:21;;;;;;;4.40;2.00;;;12.10;94.40;;;;;;4973914;28;20021;-72
2022/08/15 11:55:48;;;;;;;2.67;1.80;;;12.10;94.60;;;;;;4976046;28;20037;-75
2022/08/15 11:58:16;;;;;;;4.05;1.80;;;12.20;94.40;;;;;;4974559;28;20039;-71
2022/08/15 12:00:48;;;;;;;5.30;1.70;;;12.10;94.30;;;;;;4976332;28;20698;-75
2022/08/15 12:03:23;;;;;;;3.70;1.50;;;12.10;94.60;;;;;;4973055;28;20097;-74
2022/08/15 12:05:58;;;;;;;4.90;1.48;;;12.10;94.50;;;;;;4976035;28;20030;-74
2022/08/15 12:08:34;;;;;;;2.28;1.40;;;12.20;94.60;;;;;;4974230;28;20106;-73
2022/08/15 12:11:08;;;;;;;2.63;1.50;;;12.20;94.40;;;;;;4974655;28;20034;-72
2022/08/15 12:13:36;;;;;;;2.70;1.48;;;12.10;94.40;;;;;;4973437;28;20019;-76
2022/08/15 12:16:05;;;;;;;1.55;1.25;;;12.20;94.40;;;;;;4975100;28;20030;-71
2022/08/15 12:18:34;;;;;;;2.15;1.00;;;12.10;94.30;;;;;;4970856;28;20538;-73
2022/08/15 12:21:03;;;;;;;3.17;1.30;;;12.10;94.30;;;;;;4976265;28;20030;-73
2022/08/15 12:23:31;;;;;;;2.35;1.10;;;12.10;94.20;;;;;;4970654;28;20112;-75
2022/08/15 12:26:14;;;;;;;1.35;0.90;;;12.10;94.20;;;;;;4975321;28;20034;-75
2022/08/15 12:28:43;;;;;;;1.73;0.77;;;12.20;94.30;;;;;;4973565;28;20479;-75
2022/08/15 12:31:22;;;;;;;1.30;0.80;;;12.10;94.30;;;;;;4975074;28;20074;-72
2022/08/15 12:34:10;;;;;;;2.63;0.80;;;12.20;94.40;;;;;;4974256;28;20471;-73
2022/08/15 12:36:40;;;;;;;3.05;1.00;;;12.10;94.30;;;;;;4972084;28;20018;-76
2022/08/15 12:39:08;;;;;;;1.48;0.98;;;12.20;94.50;;;;;;4975836;28;20030;-77
2022/08/15 12:41:36;;;;;;;1.60;0.90;;;12.20;94.50;;;;;;4972916;28;20026;-74
2022/08/15 12:44:11;;;;;;;2.35;1.10;;;12.20;94.50;;;;;;4975039;28;20368;-73
2022/08/15 12:46:38;;;;;;;1.98;1.13;;;12.20;94.70;;;;;;4972345;28;20023;-75
2022/08/15 12:49:05;;;;;;;2.88;1.33;;;12.20;94.60;;;;;;4975023;28;20026;-70
2022/08/15 12:51:33;;;;;;;2.33;1.00;;;12.20;94.50;;;;;;4971958;28;20027;-73
2022/08/15 12:54:00;;;;;;;1.40;0.82;;;12.20;94.40;;;;;;4975221;28;20586;-75
2022/08/15 12:56:27;;;;;;;1.35;0.77;;;12.20;94.40;;;;;;4974366;28;20022;-74
2022/08/15 12:58:54;;;;;;;1.88;0.70;;;12.20;94.50;;;;;;4973773;28;20054;-73
2022/08/15 13:01:22;;;;;;;1.77;0.82;;;12.20;94.50;;;;;;4974103;28;20026;-73
2022/08/15 13:03:49;;;;;;;1.20;0.68;;;12.20;94.50;;;;;;4973372;28;20023;-75
2022/08/15 13:06:28;;;;;;;4.47;0.88;;;12.20;94.70;;;;;;4975173;28;20030;-74
2022/08/15 13:08:56;;;;;;;1.05;0.55;;;12.20;94.70;;;;;;4972271;28;20029;-74
2022/08/15 13:11:25;;;;;;;1.63;0.70;;;12.20;94.70;;;;;;4972241;28;20724;-73
2022/08/15 13:13:52;;;;;;;1.20;0.70;;;12.20;94.80;;;;;;4972478;28;20018;-72
2022/08/15 13:16:20;;;;;;;1.13;0.80;;;12.20;95.00;;;;;;4975957;28;20118;-73
2022/08/15 13:18:47;;;;;;;1.35;0.75;;;12.20;95.00;;;;;;4968189;28;20030;-74
2022/08/15 13:24:00;;;;;;;2.08;1.15;;;12.20;95.30;;;;;;4977297;28;20041;-74
2022/08/15 13:26:27;;;;;;;1.80;0.90;;;12.20;95.50;;;;;;4976451;28;20026;-69
2022/08/15 13:28:59;;;;;;;1.80;0.80;;;12.30;95.70;;;;;;4979777;28;20025;-73
2022/08/15 13:31:28;;;;;;;2.13;1.30;;;12.20;95.80;;;;;;4977275;28;20042;-72
2022/08/15 13:33:57;;;;;;;1.73;1.15;;;12.20;95.90;;;;;;4979420;28;20034;-74
2022/08/15 13:36:27;;;;;;;3.17;1.30;;;12.30;96.00;;;;;;4977962;28;20027;-74